createdAt,value
2023-04-03T00:03:22.828Z,61.20
2023-04-03T00:13:12.822Z,45.70
2023-04-03T00:32:53.468Z,45.20
2023-04-03T00:35:21.915Z,46.10
2023-04-03T00:37:51.783Z,46.00
2023-04-03T00:42:49.028Z,47.20
2023-04-03T00:45:29.154Z,62.00
2023-04-03T00:47:57.276Z,47.80
2023-04-03T00:52:52.341Z,47.60
2023-04-03T00:57:47.802Z,47.70
2023-04-03T01:00:18.230Z,48.50
2023-04-03T01:05:18.284Z,48.30
2023-04-03T01:07:46.035Z,47.60
2023-04-03T01:10:16.493Z,47.80
2023-04-03T01:12:46.485Z,48.70
2023-04-03T01:15:23.986Z,62.00
2023-04-03T01:17:57.374Z,46.80
2023-04-03T01:20:34.014Z,47.30
2023-04-03T01:23:24.211Z,47.50
2023-04-03T01:25:54.854Z,50.10
2023-04-03T01:28:28.268Z,47.90
2023-04-03T01:31:28.018Z,47.80
2023-04-03T01:36:28.057Z,50.70
2023-04-03T01:38:56.293Z,50.90
2023-04-03T01:56:11.800Z,68.60
2023-04-03T02:18:18.907Z,52.60
2023-04-03T02:35:31.146Z,55.20
2023-04-03T02:55:16.235Z,60.00
2023-04-03T03:34:41.511Z,74.10
2023-04-03T03:54:20.723Z,74.40
2023-04-03T04:01:42.668Z,70.60
2023-04-03T04:38:47.230Z,60.00
2023-04-03T04:46:14.860Z,61.30
2023-04-03T04:53:43.483Z,77.50
2023-04-03T04:56:13.184Z,65.80
2023-04-03T05:01:11.268Z,62.20
2023-04-03T05:13:42.225Z,77.90
2023-04-03T05:31:00.882Z,67.40
2023-04-03T05:36:06.594Z,60.80
2023-04-03T05:53:30.319Z,63.00
2023-04-03T06:40:24.425Z,60.20
2023-04-03T07:00:06.929Z,58.10
2023-04-03T07:12:23.963Z,72.40
2023-04-03T07:29:36.781Z,53.40
2023-04-03T07:49:17.626Z,64.60
2023-04-03T08:19:07.246Z,63.10
2023-04-03T08:36:27.208Z,42.60
2023-04-03T08:38:55.568Z,40.70
2023-04-03T08:41:34.145Z,37.50
2023-04-03T08:44:38.604Z,37.70
2023-04-03T08:49:38.918Z,55.30
2023-04-03T08:52:14.869Z,36.70
2023-04-03T08:54:51.592Z,32.90
2023-04-03T08:57:27.635Z,38.60
2023-04-03T08:59:54.697Z,41.30
2023-04-03T09:02:36.006Z,28.50
2023-04-03T09:05:12.227Z,26.40
2023-04-03T09:07:46.811Z,23.50
2023-04-03T09:10:19.997Z,24.60
2023-04-03T09:13:14.401Z,24.30
2023-04-03T09:15:42.080Z,24.50
2023-04-03T09:18:22.863Z,21.90
2023-04-03T09:21:17.970Z,22.60
2023-04-03T09:23:54.164Z,22.40
2023-04-03T09:26:29.574Z,22.30
2023-04-03T09:29:01.925Z,20.90
2023-04-03T09:31:36.232Z,21.20
2023-04-03T09:34:08.478Z,19.50
2023-04-03T09:36:52.710Z,16.60
2023-04-03T09:39:29.261Z,16.80
2023-04-03T09:42:03.546Z,15.20
2023-04-03T09:44:36.925Z,16.30
2023-04-03T09:47:31.129Z,26.30
2023-04-03T09:50:22.285Z,15.20
2023-04-03T09:52:52.737Z,22.00
2023-04-03T09:55:30.990Z,12.10
2023-04-03T09:58:03.805Z,13.20
2023-04-03T10:00:40.401Z,13.30
2023-04-03T10:03:27.378Z,14.60
2023-04-03T10:08:32.802Z,10.40
2023-04-03T10:11:17.952Z,8.60
2023-04-03T10:13:57.480Z,9.40
2023-04-03T10:16:37.572Z,8.90
2023-04-03T10:19:24.395Z,10.00
2023-04-03T10:24:39.964Z,8.70
2023-04-03T10:29:56.876Z,7.90
2023-04-03T10:35:15.384Z,9.40
2023-04-03T10:38:02.075Z,14.00
2023-04-03T10:40:34.560Z,6.50
2023-04-03T10:43:14.028Z,6.70
2023-04-03T10:46:19.217Z,6.90
2023-04-03T10:49:10.492Z,5.10
2023-04-03T10:51:48.412Z,4.80
2023-04-03T10:54:34.048Z,6.60
2023-04-03T10:57:12.627Z,6.60
2023-04-03T10:59:48.394Z,7.00
2023-04-03T11:04:46.405Z,7.00
2023-04-03T11:07:22.596Z,5.40
2023-04-03T11:09:54.922Z,16.40
2023-04-03T11:12:46.475Z,5.00
2023-04-03T11:15:19.525Z,5.30
2023-04-03T11:18:16.246Z,5.30
2023-04-03T11:20:52.135Z,6.80
2023-04-03T11:25:50.908Z,7.40
2023-04-03T11:28:17.818Z,13.40
2023-04-03T11:31:01.504Z,11.70
2023-04-03T11:33:57.015Z,19.60
2023-04-03T11:36:34.489Z,6.30
2023-04-03T11:39:48.925Z,5.10
2023-04-03T11:42:40.694Z,6.10
2023-04-03T11:45:28.093Z,5.50
2023-04-03T11:47:59.687Z,6.50
2023-04-03T11:50:41.772Z,6.10
2023-04-03T11:53:08.961Z,19.60
2023-04-03T11:58:13.514Z,9.30
2023-04-03T12:00:47.536Z,5.50
2023-04-03T12:03:27.528Z,6.90
2023-04-03T12:06:14.551Z,4.90
2023-04-03T12:14:06.200Z,4.10
2023-04-03T12:16:38.925Z,5.20
2023-04-03T12:19:41.835Z,5.50
2023-04-03T12:22:15.532Z,18.10
2023-04-03T12:24:51.208Z,12.70
2023-04-03T12:27:35.597Z,17.80
2023-04-03T12:30:15.531Z,16.30
2023-04-03T12:33:13.004Z,3.10
2023-04-03T12:35:56.868Z,14.30
2023-04-03T12:39:04.583Z,3.10
2023-04-03T12:42:17.417Z,13.30
2023-04-03T12:45:07.343Z,17.20
2023-04-03T12:47:40.975Z,4.40
2023-04-03T12:50:30.976Z,3.60
2023-04-03T12:53:03.753Z,16.60
2023-04-03T13:00:40.338Z,1.90
2023-04-03T13:03:20.557Z,2.10
2023-04-03T13:08:16.955Z,1.60
2023-04-03T13:11:09.300Z,1.00
2023-04-03T13:16:11.709Z,3.50
2023-04-03T13:18:39.033Z,1.00
2023-04-03T13:21:19.112Z,1.00
2023-04-03T13:23:51.527Z,7.60
2023-04-03T13:26:23.114Z,1.00
2023-04-03T13:28:52.552Z,1.00
2023-04-03T13:31:27.248Z,1.00
2023-04-03T13:34:17.862Z,1.00
2023-04-03T13:37:02.110Z,1.00
2023-04-03T13:39:35.277Z,6.00
2023-04-03T13:42:17.498Z,1.00
2023-04-03T13:44:44.681Z,7.20
2023-04-03T13:47:11.801Z,8.80
2023-04-03T13:49:41.288Z,3.60
2023-04-03T13:52:49.050Z,8.20
2023-04-03T13:55:34.610Z,9.30
2023-04-03T13:58:23.199Z,1.00
2023-04-03T14:00:53.411Z,2.00
2023-04-03T14:03:34.536Z,1.00
2023-04-03T14:06:02.363Z,3.00
2023-04-03T14:11:28.062Z,1.00
2023-04-03T14:13:56.731Z,1.00
2023-04-03T14:16:26.898Z,1.00
2023-04-03T14:21:22.200Z,6.40
2023-04-03T14:23:50.105Z,1.00
2023-04-03T14:26:28.149Z,6.30
2023-04-03T14:28:56.724Z,1.00
2023-04-03T14:31:24.369Z,1.00
2023-04-03T14:36:22.510Z,4.70
2023-04-03T14:38:50.678Z,5.10
2023-04-03T14:41:21.329Z,5.80
2023-04-03T14:43:49.083Z,1.00
2023-04-03T14:48:44.468Z,5.10
2023-04-03T14:51:13.323Z,3.40
2023-04-03T14:53:41.684Z,2.90
2023-04-03T14:56:26.135Z,3.10
2023-04-03T14:58:57.923Z,1.00
2023-04-03T15:03:52.488Z,1.20
2023-04-03T15:06:19.719Z,3.00
2023-04-03T15:08:48.344Z,3.50
2023-04-03T15:11:16.045Z,1.00
2023-04-03T15:13:42.999Z,2.60
2023-04-03T15:16:20.650Z,1.00
2023-04-03T15:18:48.218Z,2.00
2023-04-03T15:23:43.771Z,1.00
2023-04-03T15:26:10.883Z,1.10
2023-04-03T15:28:41.581Z,1.00
2023-04-03T15:33:36.865Z,1.10
2023-04-03T15:36:07.056Z,1.70
2023-04-03T15:38:35.338Z,1.00
2023-04-03T15:41:02.894Z,2.10
2023-04-03T15:43:29.860Z,1.40
2023-04-03T15:45:59.315Z,1.00
2023-04-03T15:48:27.515Z,1.00
2023-04-03T15:50:55.175Z,1.00
2023-04-03T15:53:23.164Z,1.00
2023-04-03T15:55:50.143Z,1.00
2023-04-03T15:58:17.287Z,1.00
2023-04-03T16:00:44.571Z,1.80
2023-04-03T16:03:16.437Z,1.00
2023-04-03T16:05:43.761Z,2.10
2023-04-03T16:08:11.164Z,1.80
2023-04-03T16:10:39.271Z,1.20
2023-04-03T16:13:06.557Z,1.30
2023-04-03T16:15:35.405Z,1.00
2023-04-03T16:18:03.389Z,1.00
2023-04-03T16:20:31.048Z,1.20
2023-04-03T16:23:00.618Z,1.20
2023-04-03T16:25:28.101Z,1.70
2023-04-03T16:27:54.966Z,1.80
2023-04-03T16:30:22.150Z,1.30
2023-04-03T16:32:49.221Z,1.20
2023-04-03T16:35:16.357Z,1.30
2023-04-03T16:37:43.399Z,1.00
2023-04-03T16:40:10.858Z,1.00
2023-04-03T16:42:38.231Z,1.00
2023-04-03T16:45:07.006Z,1.60
2023-04-03T16:47:34.112Z,1.00
2023-04-03T16:50:01.472Z,1.50
2023-04-03T16:52:28.411Z,1.00
2023-04-03T16:54:56.631Z,1.00
2023-04-03T16:57:25.832Z,1.00
2023-04-03T16:59:54.058Z,1.00
2023-04-03T17:02:22.054Z,1.00
2023-04-03T17:04:50.761Z,1.00
2023-04-03T17:07:20.919Z,1.90
2023-04-03T17:09:48.562Z,1.00
2023-04-03T17:12:15.860Z,1.90
2023-04-03T17:14:43.029Z,1.10
2023-04-03T17:17:10.353Z,1.70
2023-04-03T17:19:38.724Z,1.00
2023-04-03T17:22:05.955Z,4.00
2023-04-03T17:24:34.093Z,4.10
2023-04-03T17:27:01.198Z,3.50
2023-04-03T17:29:28.053Z,4.20
2023-04-03T17:31:55.247Z,1.00
2023-04-03T17:34:22.516Z,1.00
2023-04-03T17:36:49.750Z,6.10
2023-04-03T17:39:17.081Z,5.40
2023-04-03T17:41:45.810Z,5.60
2023-04-03T17:44:13.425Z,7.00
2023-04-03T17:49:09.992Z,8.50
2023-04-03T17:51:36.874Z,10.10
2023-04-03T17:56:31.329Z,13.50
2023-04-03T18:01:27.390Z,5.70
2023-04-03T18:03:56.304Z,6.70
2023-04-03T18:06:27.349Z,7.20
2023-04-03T18:09:04.322Z,7.00
2023-04-03T18:14:02.588Z,9.80
2023-04-03T18:16:30.419Z,9.50
2023-04-03T18:19:11.745Z,16.30
2023-04-03T18:24:15.801Z,12.00
2023-04-03T18:26:44.415Z,11.60
2023-04-03T18:31:43.761Z,13.30
2023-04-03T18:34:11.732Z,18.50
2023-04-03T18:36:38.777Z,27.00
2023-04-03T18:41:35.372Z,21.70
2023-04-03T18:44:05.323Z,27.50
2023-04-03T19:01:18.555Z,17.00
2023-04-03T19:06:13.016Z,30.20
2023-04-03T19:26:06.050Z,23.50
2023-04-03T19:28:33.278Z,33.20
2023-04-03T19:31:01.581Z,19.00
2023-04-03T19:33:28.948Z,18.10
2023-04-03T19:48:13.799Z,28.50
2023-04-03T20:00:33.164Z,36.60
2023-04-03T20:30:11.350Z,25.90
2023-04-03T20:44:57.230Z,44.70
2023-04-03T20:47:24.394Z,32.90
2023-04-03T21:04:54.475Z,45.80
2023-04-03T21:07:59.443Z,27.50
2023-04-03T21:11:04.344Z,33.10
2023-04-03T21:14:09.012Z,28.80
2023-04-03T21:19:15.946Z,29.90
2023-04-03T21:21:45.880Z,29.90
2023-04-03T21:24:13.966Z,31.20
2023-04-03T21:26:41.670Z,30.00
2023-04-03T21:31:56.732Z,30.30
2023-04-03T21:34:33.323Z,32.30
2023-04-03T21:37:06.045Z,48.20
2023-04-03T21:42:00.909Z,34.60
2023-04-03T21:49:24.345Z,34.00
2023-04-03T21:59:15.900Z,32.80
2023-04-03T22:11:33.470Z,46.80
2023-04-03T22:14:00.942Z,51.90
2023-04-03T22:31:17.259Z,37.70
2023-04-03T22:33:45.146Z,37.20
2023-04-03T22:36:13.224Z,36.50
2023-04-03T22:38:44.001Z,38.00
2023-04-03T22:43:39.492Z,36.90
2023-04-03T22:46:08.695Z,38.40
2023-04-03T22:51:09.966Z,39.30
2023-04-03T22:56:11.199Z,56.60
2023-04-03T23:01:11.999Z,37.50
2023-04-03T23:03:40.766Z,40.70
2023-04-03T23:06:09.493Z,41.80
2023-04-03T23:08:40.831Z,40.30
2023-04-03T23:11:09.338Z,55.50
2023-04-03T23:16:04.651Z,39.80
2023-04-03T23:18:32.937Z,41.00
2023-04-03T23:26:00.592Z,38.80
2023-04-03T23:28:28.643Z,40.30
2023-04-03T23:31:00.778Z,39.80
2023-04-03T23:38:22.612Z,53.30
2023-04-03T23:40:49.601Z,47.10
2023-04-03T23:45:46.703Z,41.20
2023-04-03T23:50:42.045Z,54.10
